Time;durP1;ratioP1;P1;durP2;ratioP2;P2;SDS_P1;SDS_P2;PMS_P1;PMS_P2;Temp;Humidity;BMP_temperature;BMP_pressure;BME280_temperature;BME280_humidity;BME280_pressure;Samples;Min_cycle;Max_cycle;Signal;HPM_P1;HPM_P2
2020/12/29 00:00:23;;;;;;;7.13;4.22;;;15.20;57.10;;;;;;1056759;28;20020;-76
2020/12/29 00:00:56;;;;;;;6.65;4.30;;;15.20;57.30;;;;;;1057067;28;20445;-75
2020/12/29 00:01:48;;;;;;;6.18;4.20;;;15.20;57.40;;;;;;1057615;27;20015;-76
2020/12/29 00:02:19;;;;;;;5.75;4.18;;;15.20;57.60;;;;;;1061076;27;20015;-75
2020/12/29 00:02:51;;;;;;;6.28;4.22;;;15.10;57.70;;;;;;1059924;27;20028;-76
2020/12/29 00:03:23;;;;;;;5.78;4.10;;;15.10;57.80;;;;;;1061287;27;20019;-76
2020/12/29 00:03:54;;;;;;;7.03;4.60;;;15.10;57.70;;;;;;1061493;27;20019;-76
2020/12/29 00:04:26;;;;;;;6.40;3.90;;;15.10;57.90;;;;;;1062229;27;20096;-76
2020/12/29 00:04:57;;;;;;;5.80;3.90;;;15.10;57.90;;;;;;1061446;27;20080;-76
2020/12/29 00:05:28;;;;;;;5.88;4.05;;;15.10;58.00;;;;;;1057208;28;20046;-75
2020/12/29 00:06:03;;;;;;;6.90;4.13;;;15.20;57.80;;;;;;1052835;28;20024;-76
2020/12/29 00:06:35;;;;;;;6.70;3.80;;;15.10;57.50;;;;;;1049780;28;20056;-76
2020/12/29 00:07:06;;;;;;;6.57;3.85;;;15.20;57.60;;;;;;1053721;28;20200;-76
2020/12/29 00:07:37;;;;;;;6.95;3.92;;;15.10;57.30;;;;;;1055105;28;20080;-76
2020/12/29 00:08:09;;;;;;;5.97;3.92;;;15.20;57.30;;;;;;1057827;27;20023;-76
2020/12/29 00:08:40;;;;;;;5.53;3.92;;;15.10;57.40;;;;;;1061905;27;20436;-76
2020/12/29 00:09:13;;;;;;;6.55;3.92;;;15.10;57.40;;;;;;1064513;27;20512;-76
2020/12/29 00:09:44;;;;;;;6.75;3.72;;;15.20;57.20;;;;;;1059609;27;20087;-77
2020/12/29 00:10:16;;;;;;;6.57;4.10;;;15.10;57.10;;;;;;1059472;27;20019;-76
2020/12/29 00:10:47;;;;;;;7.10;3.80;;;15.10;57.30;;;;;;1057460;27;20531;-76
2020/12/29 00:11:18;;;;;;;6.70;4.10;;;15.20;57.20;;;;;;1060140;27;20015;-75
2020/12/29 00:11:51;;;;;;;5.88;3.95;;;15.20;57.10;;;;;;1064130;27;20029;-75
2020/12/29 00:12:22;;;;;;;6.05;4.20;;;15.20;56.70;;;;;;1065358;27;20101;-75
2020/12/29 00:12:54;;;;;;;6.30;4.03;;;15.20;56.70;;;;;;1060740;27;20398;-76
2020/12/29 00:13:25;;;;;;;6.50;3.78;;;15.20;56.80;;;;;;1057979;27;20023;-76
2020/12/29 00:13:56;;;;;;;5.80;3.85;;;15.20;56.90;;;;;;1058665;27;20023;-75
2020/12/29 00:14:28;;;;;;;5.55;3.80;;;15.10;57.00;;;;;;1061425;27;20027;-76
2020/12/29 00:14:59;;;;;;;5.85;3.80;;;15.10;57.20;;;;;;1062905;27;20452;-75
2020/12/29 00:15:31;;;;;;;6.35;3.78;;;15.10;57.40;;;;;;1057275;28;20023;-76
2020/12/29 00:16:02;;;;;;;5.85;3.75;;;15.10;57.50;;;;;;1057321;28;20073;-76
2020/12/29 00:16:34;;;;;;;5.07;3.63;;;15.10;57.50;;;;;;1053656;28;20065;-76
2020/12/29 00:17:05;;;;;;;8.25;4.10;;;15.10;57.60;;;;;;1057206;28;20098;-75
2020/12/29 00:17:37;;;;;;;6.68;3.83;;;15.10;57.70;;;;;;1060657;27;20375;-76
2020/12/29 00:18:08;;;;;;;6.28;3.78;;;15.10;57.80;;;;;;1061928;27;20045;-76
2020/12/29 00:18:40;;;;;;;6.28;3.80;;;15.10;57.90;;;;;;1059390;27;20016;-76
2020/12/29 00:19:12;;;;;;;6.80;3.72;;;15.10;57.80;;;;;;1061419;27;20023;-76
2020/12/29 00:19:44;;;;;;;6.35;3.90;;;15.10;57.60;;;;;;1058904;27;20118;-76
2020/12/29 00:20:16;;;;;;;6.32;4.00;;;15.10;58.20;;;;;;1056640;27;20020;-76
2020/12/29 00:20:47;;;;;;;6.10;4.00;;;15.10;57.80;;;;;;1054335;28;20035;-77
2020/12/29 00:21:21;;;;;;;6.55;4.05;;;15.10;57.90;;;;;;1056638;27;20498;-75
2020/12/29 00:21:53;;;;;;;5.78;4.00;;;15.10;57.70;;;;;;1060050;27;20050;-76
2020/12/29 00:22:24;;;;;;;5.72;3.90;;;15.10;57.60;;;;;;1060655;27;20031;-76
2020/12/29 00:22:56;;;;;;;6.82;4.10;;;15.10;57.50;;;;;;1064747;27;20030;-76
2020/12/29 00:23:28;;;;;;;5.97;3.80;;;15.10;57.50;;;;;;1065782;27;20068;-76
2020/12/29 00:24:00;;;;;;;8.70;4.18;;;15.10;57.40;;;;;;1061441;27;20024;-76
2020/12/29 00:24:31;;;;;;;6.43;3.97;;;15.10;57.40;;;;;;1057197;27;20047;-76
2020/12/29 00:25:04;;;;;;;6.47;3.95;;;15.10;57.40;;;;;;1058619;27;20027;-76
2020/12/29 00:25:36;;;;;;;6.65;4.10;;;15.10;57.30;;;;;;1061061;27;20015;-77
2020/12/29 00:26:07;;;;;;;7.05;4.00;;;15.10;57.40;;;;;;1061828;27;20079;-75
2020/12/29 00:26:39;;;;;;;6.72;4.15;;;15.10;57.40;;;;;;1064127;27;20016;-76
2020/12/29 00:27:11;;;;;;;7.75;4.18;;;15.10;57.50;;;;;;1066004;27;20023;-76
2020/12/29 00:27:42;;;;;;;6.72;4.20;;;15.00;57.60;;;;;;1065215;27;20463;-76
2020/12/29 00:28:13;;;;;;;6.45;4.18;;;15.00;57.70;;;;;;1066037;27;20015;-76
2020/12/29 00:28:46;;;;;;;6.38;4.10;;;15.00;57.60;;;;;;1066812;27;20022;-76
2020/12/29 00:29:17;;;;;;;7.35;4.10;;;15.00;57.50;;;;;;1066735;27;20023;-76
2020/12/29 00:29:49;;;;;;;6.97;4.00;;;15.00;57.50;;;;;;1065343;27;20049;-76
2020/12/29 00:30:20;;;;;;;5.93;4.00;;;15.00;57.60;;;;;;1061589;27;20034;-77
2020/12/29 00:30:51;;;;;;;6.30;4.05;;;15.00;57.70;;;;;;1056202;28;20521;-77
2020/12/29 00:31:24;;;;;;;6.50;4.20;;;15.00;57.80;;;;;;1052936;28;20039;-75
2020/12/29 00:31:55;;;;;;;6.63;4.07;;;15.00;58.00;;;;;;1050656;28;20079;-77
2020/12/29 00:32:27;;;;;;;6.18;4.00;;;15.00;58.20;;;;;;1053345;28;20035;-77
2020/12/29 00:32:58;;;;;;;6.13;4.07;;;15.00;58.30;;;;;;1057255;28;20071;-77
2020/12/29 00:33:29;;;;;;;5.60;4.10;;;15.00;58.50;;;;;;1057722;27;20463;-76
2020/12/29 00:34:02;;;;;;;7.82;4.03;;;14.90;58.40;;;;;;1061385;27;20556;-76
2020/12/29 00:34:33;;;;;;;7.18;4.05;;;14.90;58.30;;;;;;1063646;27;20471;-77
2020/12/29 00:35:05;;;;;;;5.43;3.90;;;14.90;58.50;;;;;;1063452;27;20318;-77
2020/12/29 00:35:36;;;;;;;6.95;3.97;;;14.90;58.60;;;;;;1065073;27;20018;-76
2020/12/29 00:36:08;;;;;;;10.38;4.40;;;14.90;58.60;;;;;;1065935;27;20042;-76
2020/12/29 00:36:39;;;;;;;5.88;4.00;;;14.90;58.60;;;;;;1060946;27;20023;-75
2020/12/29 00:37:11;;;;;;;6.97;4.05;;;14.90;58.60;;;;;;1056961;28;20540;-76
2020/12/29 00:37:42;;;;;;;6.90;4.30;;;14.90;58.60;;;;;;1057246;28;20011;-76
2020/12/29 00:38:13;;;;;;;7.95;4.03;;;14.90;58.70;;;;;;1057022;27;20026;-75
2020/12/29 00:38:45;;;;;;;8.35;4.05;;;14.90;58.70;;;;;;1060456;27;20143;-75
2020/12/29 00:39:16;;;;;;;6.38;4.07;;;14.90;58.70;;;;;;1059747;27;20322;-76
2020/12/29 00:39:48;;;;;;;6.72;3.92;;;14.90;58.70;;;;;;1062085;27;20094;-75
2020/12/29 00:40:19;;;;;;;6.18;4.20;;;14.90;58.70;;;;;;1059534;27;20051;-75
2020/12/29 00:40:51;;;;;;;7.35;4.10;;;14.90;58.80;;;;;;1060221;27;20026;-76
2020/12/29 00:41:23;;;;;;;7.25;4.40;;;14.80;58.90;;;;;;1053761;28;20023;-75
2020/12/29 00:41:56;;;;;;;6.25;4.07;;;14.90;59.10;;;;;;1053568;28;20418;-75
2020/12/29 00:42:32;;;;;;;5.68;4.00;;;14.80;59.10;;;;;;1058893;27;20019;-75
2020/12/29 00:43:04;;;;;;;6.97;4.20;;;14.80;59.10;;;;;;1060384;27;20026;-75
2020/12/29 00:43:36;;;;;;;6.88;4.43;;;14.80;59.30;;;;;;1057963;27;20023;-76
2020/12/29 00:44:07;;;;;;;7.90;4.60;;;14.80;59.40;;;;;;1054293;28;20033;-76
2020/12/29 00:44:38;;;;;;;7.35;4.75;;;14.80;59.40;;;;;;1052046;28;20023;-76
2020/12/29 00:45:10;;;;;;;7.90;4.70;;;14.80;59.40;;;;;;1050334;28;21493;-77
2020/12/29 00:45:41;;;;;;;7.05;4.45;;;14.70;59.10;;;;;;1055343;27;20134;-76
2020/12/29 00:46:15;;;;;;;6.35;4.50;;;14.70;58.90;;;;;;1059425;27;20088;-77
2020/12/29 00:46:47;;;;;;;7.60;4.57;;;14.70;59.00;;;;;;1061505;27;20429;-77
2020/12/29 00:47:19;;;;;;;6.60;4.25;;;14.60;59.10;;;;;;1062411;27;20014;-77
2020/12/29 00:47:50;;;;;;;5.90;4.13;;;14.60;59.60;;;;;;1065525;27;20015;-76
2020/12/29 00:48:21;;;;;;;6.85;4.50;;;14.60;60.10;;;;;;1059969;27;20027;-76
2020/12/29 00:48:53;;;;;;;8.35;4.40;;;14.50;60.30;;;;;;1060148;27;20373;-76
2020/12/29 00:49:24;;;;;;;9.38;4.00;;;14.50;60.60;;;;;;1061307;27;20015;-76
2020/12/29 00:49:56;;;;;;;5.97;3.90;;;14.40;60.80;;;;;;1057538;27;20408;-76
2020/12/29 00:50:27;;;;;;;5.70;4.00;;;14.40;61.10;;;;;;1056340;28;20011;-77
2020/12/29 00:51:09;;;;;;;6.47;4.20;;;14.40;61.20;;;;;;1051643;28;20424;-76
2020/12/29 00:51:40;;;;;;;7.47;4.30;;;14.40;61.50;;;;;;1050557;28;20446;-75
2020/12/29 00:52:11;;;;;;;5.97;4.13;;;14.30;61.60;;;;;;1058050;27;20007;-76
2020/12/29 00:52:43;;;;;;;7.35;4.30;;;14.30;61.90;;;;;;1058821;27;20039;-76
2020/12/29 00:53:14;;;;;;;6.28;4.03;;;14.20;62.10;;;;;;1060961;27;20015;-76
2020/12/29 00:53:46;;;;;;;6.90;3.85;;;14.20;62.30;;;;;;1061306;27;20015;-76
2020/12/29 00:54:17;;;;;;;6.35;4.20;;;14.20;62.40;;;;;;1061326;27;20019;-76
2020/12/29 00:54:49;;;;;;;5.68;3.88;;;14.20;62.50;;;;;;1065897;27;20034;-76
2020/12/29 00:55:23;;;;;;;6.35;4.18;;;14.10;62.50;;;;;;1065801;27;20081;-77
2020/12/29 00:55:55;;;;;;;8.95;3.90;;;14.20;62.50;;;;;;1065734;27;20030;-76
2020/12/29 00:56:26;;;;;;;5.82;4.00;;;14.20;62.40;;;;;;1060437;27;20426;-76
2020/12/29 00:56:58;;;;;;;6.35;3.92;;;14.10;62.30;;;;;;1061244;27;20019;-76
2020/12/29 00:57:30;;;;;;;5.53;4.00;;;14.20;62.30;;;;;;1060946;27;20021;-76
2020/12/29 00:58:01;;;;;;;7.55;4.72;;;14.10;62.30;;;;;;1061163;27;20441;-75
2020/12/29 00:58:33;;;;;;;8.57;4.70;;;14.10;62.30;;;;;;1064630;27;20010;-76
2020/12/29 00:59:05;;;;;;;9.90;5.40;;;14.10;62.30;;;;;;1065900;27;20017;-76
2020/12/29 00:59:36;;;;;;;13.38;6.90;;;14.10;62.30;;;;;;1061995;27;20090;-76
2020/12/29 01:00:07;;;;;;;11.35;6.47;;;14.10;62.20;;;;;;1065204;27;20015;-76
2020/12/29 01:00:39;;;;;;;13.65;7.80;;;14.10;62.20;;;;;;1060812;27;20073;-76
2020/12/29 01:01:11;;;;;;;14.20;7.85;;;14.00;62.30;;;;;;1059392;27;20039;-75
2020/12/29 01:01:42;;;;;;;13.55;7.93;;;14.00;62.40;;;;;;1060091;27;20015;-76
2020/12/29 01:02:13;;;;;;;13.98;8.88;;;14.00;62.50;;;;;;1060045;27;20016;-77
2020/12/29 01:02:45;;;;;;;16.75;9.80;;;13.90;62.60;;;;;;1060236;27;20101;-77
2020/12/29 01:03:16;;;;;;;15.40;10.32;;;13.90;62.80;;;;;;1056857;28;20017;-76
2020/12/29 01:03:47;;;;;;;23.45;14.98;;;13.90;62.90;;;;;;1049064;28;20372;-77
2020/12/29 01:04:19;;;;;;;29.17;18.20;;;13.80;63.00;;;;;;1052145;28;20093;-77
2020/12/29 01:04:50;;;;;;;28.08;18.85;;;13.70;63.70;;;;;;1056154;28;20015;-76
2020/12/29 01:05:21;;;;;;;27.40;18.15;;;13.70;63.30;;;;;;1060973;27;20023;-76
2020/12/29 01:05:53;;;;;;;28.58;18.23;;;13.60;63.40;;;;;;1065821;27;20023;-76
2020/12/29 01:06:28;;;;;;;25.50;15.52;;;13.60;63.60;;;;;;1064358;27;20010;-76
2020/12/29 01:07:03;;;;;;;25.52;15.82;;;13.60;63.70;;;;;;1057435;27;20023;-76
2020/12/29 01:07:37;;;;;;;21.02;13.40;;;13.50;63.90;;;;;;1054813;28;20020;-76
2020/12/29 01:08:29;;;;;;;21.27;12.48;;;13.40;64.00;;;;;;1052737;28;20020;-76
2020/12/29 01:09:00;;;;;;;17.73;9.40;;;13.40;64.20;;;;;;1037215;28;20029;-76
2020/12/29 01:09:31;;;;;;;14.65;7.88;;;13.30;64.50;;;;;;1037222;28;20017;-75
2020/12/29 01:10:09;;;;;;;10.10;6.20;;;13.30;64.70;;;;;;1040261;28;20037;-77
2020/12/29 01:10:43;;;;;;;9.82;6.10;;;13.20;64.90;;;;;;1040740;28;20462;-76
2020/12/29 01:11:14;;;;;;;8.35;5.20;;;13.10;65.10;;;;;;1041115;28;20456;-77
2020/12/29 01:11:46;;;;;;;8.35;5.10;;;13.10;65.30;;;;;;1036154;28;20029;-75
2020/12/29 01:12:17;;;;;;;8.95;5.50;;;13.10;65.40;;;;;;1039686;28;20014;-77
2020/12/29 01:12:48;;;;;;;10.00;5.40;;;13.00;65.40;;;;;;1043851;28;20044;-76
2020/12/29 01:13:20;;;;;;;6.65;4.72;;;13.00;65.60;;;;;;1048678;28;20443;-77
2020/12/29 01:13:52;;;;;;;7.40;4.60;;;12.90;65.80;;;;;;1048488;28;20020;-76
2020/12/29 01:14:23;;;;;;;5.78;4.00;;;12.90;65.90;;;;;;1048337;28;20526;-76
2020/12/29 01:14:55;;;;;;;7.63;4.65;;;12.80;66.00;;;;;;1048578;28;20375;-76
2020/12/29 01:15:26;;;;;;;6.90;4.28;;;12.80;66.10;;;;;;1044373;28;20103;-77
2020/12/29 01:15:58;;;;;;;6.75;3.92;;;12.70;66.30;;;;;;1044267;28;20025;-77
2020/12/29 01:16:29;;;;;;;6.07;4.20;;;12.80;66.50;;;;;;1040117;28;20045;-77
2020/12/29 01:17:00;;;;;;;6.80;4.32;;;12.70;66.50;;;;;;1040096;28;20026;-76
2020/12/29 01:17:32;;;;;;;5.88;3.70;;;12.70;66.60;;;;;;1045037;28;20025;-76
2020/12/29 01:18:03;;;;;;;6.15;4.20;;;12.70;66.80;;;;;;1044388;28;20096;-76
2020/12/29 01:18:37;;;;;;;7.57;4.10;;;12.60;66.80;;;;;;1044350;28;20389;-76
2020/12/29 01:19:08;;;;;;;6.07;4.20;;;12.60;66.90;;;;;;1044519;28;20013;-77
2020/12/29 01:19:40;;;;;;;5.97;3.92;;;12.60;67.10;;;;;;1045016;28;20028;-76
2020/12/29 01:20:12;;;;;;;7.03;4.38;;;12.60;67.10;;;;;;1040882;28;20026;-76
2020/12/29 01:20:43;;;;;;;6.70;4.25;;;12.50;67.10;;;;;;1040222;28;20017;-76
2020/12/29 01:21:14;;;;;;;7.90;4.20;;;12.50;67.20;;;;;;1040241;28;20013;-75
2020/12/29 01:21:46;;;;;;;5.93;3.88;;;12.50;67.20;;;;;;1040628;28;20033;-76
2020/12/29 01:22:17;;;;;;;7.90;4.38;;;12.50;67.20;;;;;;1044878;28;20432;-76
2020/12/29 01:22:49;;;;;;;5.30;3.80;;;12.50;67.20;;;;;;1048591;28;20017;-76
2020/12/29 01:23:20;;;;;;;6.55;4.20;;;12.50;67.30;;;;;;1048596;28;20043;-76
2020/12/29 01:23:51;;;;;;;6.88;4.00;;;12.40;67.30;;;;;;1048262;28;20021;-76
2020/12/29 01:24:23;;;;;;;8.13;4.15;;;12.40;67.40;;;;;;1048319;28;20094;-77
2020/12/29 01:24:54;;;;;;;6.13;3.88;;;12.40;67.50;;;;;;1048647;28;20040;-76
2020/12/29 01:25:26;;;;;;;7.70;4.30;;;12.40;67.60;;;;;;1048394;28;20073;-77
2020/12/29 01:25:57;;;;;;;6.43;4.13;;;12.40;67.70;;;;;;1044236;28;20022;-76
2020/12/29 01:26:28;;;;;;;8.55;4.25;;;12.30;67.80;;;;;;1043094;28;20378;-76
2020/12/29 01:27:00;;;;;;;6.63;4.22;;;12.30;67.80;;;;;;1045133;28;20092;-76
2020/12/29 01:27:35;;;;;;;7.70;4.13;;;12.30;67.70;;;;;;1039437;28;20026;-76
2020/12/29 01:28:06;;;;;;;8.75;4.18;;;12.30;67.80;;;;;;1044512;28;20052;-77
2020/12/29 01:28:38;;;;;;;6.50;4.10;;;12.30;68.00;;;;;;1046439;28;20059;-76
2020/12/29 01:29:09;;;;;;;6.47;4.10;;;12.30;67.90;;;;;;1045216;28;20021;-76
2020/12/29 01:29:40;;;;;;;7.03;4.00;;;12.20;68.00;;;;;;1048315;28;20484;-76
2020/12/29 01:30:13;;;;;;;6.43;4.13;;;12.10;68.00;;;;;;1048579;28;20470;-77
2020/12/29 01:30:44;;;;;;;6.78;3.80;;;12.10;68.00;;;;;;1048489;28;20049;-77
2020/12/29 01:31:23;;;;;;;6.85;4.15;;;12.10;68.00;;;;;;1047984;28;20045;-77
2020/12/29 01:31:54;;;;;;;7.50;4.20;;;12.10;68.00;;;;;;1044500;28;20021;-76
2020/12/29 01:32:25;;;;;;;6.47;4.30;;;12.10;68.00;;;;;;1045065;28;20096;-76
2020/12/29 01:32:57;;;;;;;6.97;4.20;;;12.10;68.10;;;;;;1045253;28;20024;-76
2020/12/29 01:33:28;;;;;;;8.35;4.30;;;12.10;68.20;;;;;;1048546;28;20024;-75
2020/12/29 01:34:00;;;;;;;6.38;4.22;;;12.00;68.40;;;;;;1048289;28;20461;-76
2020/12/29 01:34:32;;;;;;;6.80;3.92;;;12.00;68.40;;;;;;1048433;28;20013;-76
2020/12/29 01:35:04;;;;;;;7.00;4.45;;;12.00;68.50;;;;;;1046977;28;20032;-77
2020/12/29 01:35:35;;;;;;;6.13;4.30;;;12.00;68.60;;;;;;1048407;28;20033;-76
2020/12/29 01:36:09;;;;;;;6.30;4.10;;;12.00;68.60;;;;;;1048564;28;20430;-76
2020/12/29 01:36:41;;;;;;;7.25;4.50;;;11.90;68.70;;;;;;1044316;28;20352;-76
2020/12/29 01:37:12;;;;;;;8.23;4.20;;;11.90;68.90;;;;;;1040082;28;20124;-76
2020/12/29 01:37:45;;;;;;;7.25;4.18;;;11.80;69.00;;;;;;1036146;28;20053;-76
2020/12/29 01:38:16;;;;;;;9.20;4.55;;;11.90;69.00;;;;;;1036867;28;20060;-76
2020/12/29 01:38:48;;;;;;;7.70;4.30;;;11.80;69.10;;;;;;1040487;28;20022;-76
2020/12/29 01:39:19;;;;;;;8.25;4.20;;;11.80;69.20;;;;;;1044428;28;20025;-76
2020/12/29 01:39:51;;;;;;;5.70;4.00;;;11.80;69.20;;;;;;1048550;28;20095;-76
2020/12/29 01:40:22;;;;;;;7.28;4.10;;;11.80;69.40;;;;;;1048682;28;20055;-76
2020/12/29 01:40:59;;;;;;;6.82;4.20;;;11.80;69.40;;;;;;1048043;28;20315;-76
2020/12/29 01:41:35;;;;;;;7.25;4.38;;;11.70;69.50;;;;;;1047934;28;20036;-76
2020/12/29 01:42:11;;;;;;;6.88;4.10;;;11.70;69.60;;;;;;1047846;28;20020;-75
2020/12/29 01:42:42;;;;;;;8.93;4.18;;;11.70;69.70;;;;;;1043805;28;20029;-76
2020/12/29 01:43:14;;;;;;;9.63;4.40;;;11.70;69.90;;;;;;1042930;28;20112;-76
2020/12/29 01:43:45;;;;;;;7.35;4.40;;;11.70;69.90;;;;;;1041064;28;20069;-76
2020/12/29 01:44:19;;;;;;;7.78;4.50;;;11.70;70.00;;;;;;1040357;28;20360;-76
2020/12/29 01:44:50;;;;;;;6.43;3.90;;;11.70;70.00;;;;;;1044519;28;20466;-76
2020/12/29 01:45:22;;;;;;;6.38;4.03;;;11.60;69.90;;;;;;1044333;28;20017;-76
2020/12/29 01:45:54;;;;;;;7.93;4.55;;;11.60;70.00;;;;;;1040031;28;20108;-76
2020/12/29 01:46:25;;;;;;;6.15;4.35;;;11.60;70.10;;;;;;1040319;28;20357;-76
2020/12/29 01:46:57;;;;;;;6.05;4.20;;;11.60;70.10;;;;;;1046212;28;20466;-76
2020/12/29 01:47:29;;;;;;;7.38;4.25;;;11.60;70.70;;;;;;1060924;27;20019;-76
2020/12/29 01:48:01;;;;;;;6.40;4.53;;;11.60;70.10;;;;;;1065345;27;20010;-76
2020/12/29 01:48:33;;;;;;;6.13;4.30;;;11.60;70.20;;;;;;1065020;27;20030;-76
2020/12/29 01:49:04;;;;;;;6.70;4.50;;;11.50;70.20;;;;;;1058612;28;20047;-76
2020/12/29 01:49:36;;;;;;;6.15;4.10;;;11.50;70.30;;;;;;1060735;28;20039;-77
2020/12/29 01:50:12;;;;;;;7.93;4.53;;;11.50;70.30;;;;;;1056713;28;20453;-77
2020/12/29 01:50:43;;;;;;;7.90;4.50;;;11.50;70.50;;;;;;1057239;28;20099;-76
2020/12/29 01:51:15;;;;;;;6.40;4.40;;;11.50;70.50;;;;;;1058853;28;20116;-75
2020/12/29 01:51:46;;;;;;;6.43;4.40;;;11.50;70.50;;;;;;1057406;28;20027;-75
2020/12/29 01:52:18;;;;;;;8.65;4.50;;;11.40;70.40;;;;;;1061230;28;20390;-75
2020/12/29 01:52:59;;;;;;;6.45;4.35;;;11.40;70.50;;;;;;1061304;28;20054;-76
2020/12/29 01:53:30;;;;;;;8.02;4.30;;;11.40;70.50;;;;;;1061907;27;20015;-76
2020/12/29 01:54:02;;;;;;;7.18;4.05;;;11.40;70.50;;;;;;1065838;27;20019;-76
2020/12/29 01:54:33;;;;;;;7.82;4.30;;;11.40;70.60;;;;;;1061208;28;20019;-76
2020/12/29 01:55:07;;;;;;;6.20;4.18;;;11.40;70.50;;;;;;1061292;28;20015;-75
2020/12/29 01:55:38;;;;;;;9.65;4.72;;;11.40;70.60;;;;;;1060874;28;20035;-76
2020/12/29 01:56:10;;;;;;;8.80;4.70;;;11.40;70.70;;;;;;1060920;27;20015;-76
2020/12/29 01:56:42;;;;;;;7.90;4.75;;;11.40;70.70;;;;;;1059216;28;20023;-76
2020/12/29 01:57:14;;;;;;;7.53;4.72;;;11.30;70.70;;;;;;1056819;28;20042;-76
2020/12/29 01:57:45;;;;;;;7.63;4.78;;;11.30;70.80;;;;;;1061033;28;20022;-76
2020/12/29 01:58:17;;;;;;;8.05;5.05;;;11.30;70.70;;;;;;1060554;27;20023;-76
2020/12/29 01:58:48;;;;;;;10.13;5.30;;;11.30;70.70;;;;;;1061357;27;20019;-76
2020/12/29 01:59:20;;;;;;;8.75;5.30;;;11.30;70.80;;;;;;1063366;27;20050;-75
2020/12/29 01:59:51;;;;;;;9.55;5.43;;;11.30;70.80;;;;;;1063475;27;20340;-76
2020/12/29 02:00:23;;;;;;;10.05;5.13;;;11.30;70.70;;;;;;1065178;27;20022;-76
2020/12/29 02:00:54;;;;;;;10.13;5.60;;;11.20;70.80;;;;;;1063914;27;20429;-77
2020/12/29 02:01:26;;;;;;;8.88;5.50;;;11.20;70.80;;;;;;1059622;28;20429;-75
2020/12/29 02:01:57;;;;;;;7.50;5.00;;;11.20;70.90;;;;;;1061171;28;20015;-76
2020/12/29 02:02:30;;;;;;;11.90;6.00;;;11.20;70.90;;;;;;1058933;28;20376;-76
2020/12/29 02:03:02;;;;;;;9.32;6.07;;;11.20;71.00;;;;;;1059594;27;20012;-76
2020/12/29 02:03:35;;;;;;;11.05;6.15;;;11.20;71.00;;;;;;1065083;27;20071;-76
2020/12/29 02:04:11;;;;;;;10.23;6.13;;;11.20;71.10;;;;;;1060736;28;20019;-76
2020/12/29 02:04:43;;;;;;;11.30;5.60;;;11.20;71.10;;;;;;1052664;28;20153;-76
2020/12/29 02:05:15;;;;;;;7.95;5.25;;;11.20;71.10;;;;;;1052752;28;20020;-76
2020/12/29 02:05:47;;;;;;;10.07;5.70;;;11.20;71.10;;;;;;1054121;28;20416;-76
2020/12/29 02:06:20;;;;;;;8.82;5.43;;;11.20;71.10;;;;;;1053475;28;20020;-76
2020/12/29 02:06:51;;;;;;;9.55;5.63;;;11.30;71.10;;;;;;1057061;28;20016;-76
2020/12/29 02:07:23;;;;;;;12.38;5.15;;;11.30;70.90;;;;;;1057167;28;20020;-76
2020/12/29 02:07:55;;;;;;;10.05;5.00;;;11.30;70.90;;;;;;1056938;28;20069;-76
2020/12/29 02:08:26;;;;;;;10.52;5.05;;;11.30;70.90;;;;;;1060278;28;20016;-75
2020/12/29 02:08:58;;;;;;;9.32;4.25;;;11.30;70.80;;;;;;1056824;28;20027;-76
2020/12/29 02:09:30;;;;;;;8.43;4.18;;;11.30;70.70;;;;;;1057346;28;20391;-75
2020/12/29 02:10:02;;;;;;;9.55;4.93;;;11.30;70.70;;;;;;1060145;28;20067;-76
2020/12/29 02:10:34;;;;;;;10.98;4.60;;;11.40;70.70;;;;;;1053723;28;20048;-76
2020/12/29 02:11:06;;;;;;;9.13;4.22;;;11.40;70.70;;;;;;1058715;28;20084;-76
2020/12/29 02:11:38;;;;;;;9.48;4.30;;;11.40;70.60;;;;;;1059390;28;20030;-76
2020/12/29 02:12:26;;;;;;;9.55;4.72;;;11.40;70.60;;;;;;1060600;28;20019;-77
2020/12/29 02:12:57;;;;;;;7.97;4.30;;;11.40;70.50;;;;;;1059303;28;20019;-75
2020/12/29 02:13:29;;;;;;;9.32;4.32;;;11.40;70.50;;;;;;1056910;28;20026;-76
2020/12/29 02:14:01;;;;;;;9.07;4.30;;;11.40;70.50;;;;;;1052595;28;20120;-76
2020/12/29 02:14:32;;;;;;;7.13;4.13;;;11.40;70.50;;;;;;1053347;28;20430;-76
2020/12/29 02:15:06;;;;;;;7.05;4.50;;;11.50;70.50;;;;;;1052799;28;20107;-75
2020/12/29 02:15:38;;;;;;;10.15;4.60;;;11.50;70.40;;;;;;1050454;28;20105;-75
2020/12/29 02:16:09;;;;;;;8.10;4.47;;;11.50;70.40;;;;;;1053460;28;20032;-75
2020/12/29 02:16:42;;;;;;;10.20;4.70;;;11.40;70.40;;;;;;1056795;28;20016;-76
2020/12/29 02:17:14;;;;;;;9.27;4.93;;;11.40;70.40;;;;;;1059550;27;20023;-76
2020/12/29 02:17:45;;;;;;;10.27;4.57;;;11.40;70.40;;;;;;1064381;27;20019;-76
2020/12/29 02:18:17;;;;;;;8.40;4.90;;;11.40;70.40;;;;;;1065463;27;20019;-75
2020/12/29 02:18:48;;;;;;;9.50;4.53;;;11.40;70.50;;;;;;1064664;27;20062;-76
2020/12/29 02:19:19;;;;;;;8.20;4.85;;;11.40;70.60;;;;;;1059390;28;20023;-75
2020/12/29 02:19:51;;;;;;;9.07;5.07;;;11.40;70.60;;;;;;1054673;28;20028;-75
2020/12/29 02:20:23;;;;;;;10.27;5.10;;;11.30;70.50;;;;;;1054377;28;20039;-76
2020/12/29 02:20:54;;;;;;;10.15;4.97;;;11.30;70.70;;;;;;1050976;28;20020;-76
2020/12/29 02:21:31;;;;;;;9.57;5.10;;;11.30;70.90;;;;;;1056491;28;20106;-76
2020/12/29 02:22:03;;;;;;;8.57;5.05;;;11.30;70.90;;;;;;1055283;28;20016;-75
2020/12/29 02:22:34;;;;;;;13.05;5.80;;;11.30;70.90;;;;;;1055226;28;20454;-75
2020/12/29 02:23:06;;;;;;;10.27;5.10;;;11.30;70.90;;;;;;1059958;27;20103;-75
2020/12/29 02:23:38;;;;;;;8.77;4.90;;;11.30;71.00;;;;;;1062805;27;20050;-76
2020/12/29 02:24:09;;;;;;;10.07;5.00;;;11.30;71.00;;;;;;1058896;27;20027;-76
2020/12/29 02:24:41;;;;;;;9.10;4.72;;;11.30;71.00;;;;;;1054582;28;20016;-76
2020/12/29 02:25:12;;;;;;;8.48;5.03;;;11.30;71.00;;;;;;1055442;28;20055;-76
2020/12/29 02:25:43;;;;;;;8.30;4.85;;;11.30;71.10;;;;;;1051794;28;20461;-75
2020/12/29 02:26:15;;;;;;;11.98;4.97;;;11.30;71.10;;;;;;1053633;28;20432;-76
2020/12/29 02:26:46;;;;;;;10.90;4.80;;;11.20;71.00;;;;;;1056229;28;20024;-76
2020/12/29 02:27:19;;;;;;;9.45;4.45;;;11.20;71.10;;;;;;1057068;27;20404;-75
2020/12/29 02:27:51;;;;;;;8.85;4.70;;;11.20;71.20;;;;;;1059283;27;20020;-77
2020/12/29 02:28:23;;;;;;;9.70;4.88;;;11.20;71.20;;;;;;1064272;27;20030;-76
2020/12/29 02:29:05;;;;;;;10.90;4.90;;;11.20;71.20;;;;;;1059136;27;20027;-76
2020/12/29 02:29:37;;;;;;;9.82;4.88;;;11.20;71.30;;;;;;1060399;27;20034;-75
2020/12/29 02:30:08;;;;;;;10.35;4.82;;;11.20;71.30;;;;;;1057132;28;20023;-75
2020/12/29 02:30:40;;;;;;;12.05;4.72;;;11.20;71.40;;;;;;1059801;27;20512;-76
2020/12/29 02:31:12;;;;;;;9.13;4.90;;;11.10;71.40;;;;;;1061995;27;20034;-76
2020/12/29 02:31:43;;;;;;;9.20;4.63;;;11.20;71.40;;;;;;1062101;27;20011;-75
2020/12/29 02:32:15;;;;;;;9.93;4.63;;;11.20;71.30;;;;;;1062230;27;20026;-75
2020/12/29 02:32:47;;;;;;;8.60;4.53;;;11.20;71.30;;;;;;1062273;27;20341;-75
2020/12/29 02:33:18;;;;;;;9.68;4.70;;;11.20;71.30;;;;;;1061870;27;20030;-75
2020/12/29 02:33:50;;;;;;;10.05;5.22;;;11.20;71.30;;;;;;1061912;27;20019;-75
2020/12/29 02:34:21;;;;;;;10.25;5.18;;;11.20;71.30;;;;;;1062018;27;20019;-75
2020/12/29 02:34:53;;;;;;;7.60;4.60;;;11.20;71.30;;;;;;1061930;27;20042;-76
2020/12/29 02:35:24;;;;;;;10.80;5.03;;;11.20;71.30;;;;;;1062230;27;20033;-75
2020/12/29 02:35:56;;;;;;;10.70;4.78;;;11.20;71.30;;;;;;1066085;27;20456;-75
2020/12/29 02:36:27;;;;;;;10.82;4.80;;;11.10;71.40;;;;;;1061027;27;20159;-75
2020/12/29 02:36:58;;;;;;;14.05;5.10;;;11.10;71.40;;;;;;1061601;27;20034;-76
2020/12/29 02:37:30;;;;;;;9.13;4.70;;;11.10;71.40;;;;;;1061380;27;20019;-75
2020/12/29 02:38:01;;;;;;;12.25;4.75;;;11.10;71.60;;;;;;1061006;27;20023;-76
2020/12/29 02:38:32;;;;;;;10.25;4.60;;;11.10;71.60;;;;;;1066426;27;20042;-76
2020/12/29 02:39:04;;;;;;;11.82;4.75;;;11.10;71.60;;;;;;1066373;27;20348;-75
2020/12/29 02:39:50;;;;;;;9.63;4.38;;;11.10;71.60;;;;;;1061817;27;20011;-75
2020/12/29 02:40:21;;;;;;;13.88;5.05;;;11.10;71.60;;;;;;1059760;27;20023;-75
2020/12/29 02:40:53;;;;;;;13.85;4.82;;;11.10;71.60;;;;;;1061559;27;20043;-75
2020/12/29 02:41:24;;;;;;;12.35;4.80;;;11.10;71.60;;;;;;1061709;27;20046;-75
2020/12/29 02:41:55;;;;;;;9.60;4.43;;;11.10;71.70;;;;;;1062077;27;20379;-75
2020/12/29 02:42:27;;;;;;;10.98;4.85;;;11.10;72.50;;;;;;1061729;27;20533;-75
2020/12/29 02:42:58;;;;;;;10.18;4.93;;;11.00;71.90;;;;;;1059804;27;20027;-75
2020/12/29 02:43:31;;;;;;;10.27;4.80;;;11.00;72.10;;;;;;1063351;27;20441;-76
2020/12/29 02:44:03;;;;;;;9.10;4.25;;;11.00;72.20;;;;;;1061788;27;20019;-76
2020/12/29 02:44:34;;;;;;;10.65;5.05;;;11.00;72.30;;;;;;1063662;27;20007;-76
2020/12/29 02:45:07;;;;;;;10.10;4.90;;;11.00;72.50;;;;;;1061091;27;20107;-76
2020/12/29 02:45:39;;;;;;;8.80;4.40;;;10.90;72.50;;;;;;1066404;27;20321;-76
2020/12/29 02:46:14;;;;;;;12.85;4.82;;;10.90;72.60;;;;;;1065107;27;20122;-76
2020/12/29 02:46:49;;;;;;;13.35;5.00;;;10.90;73.30;;;;;;1059993;27;20322;-75
2020/12/29 02:47:20;;;;;;;10.30;4.72;;;10.90;72.70;;;;;;1056609;28;20027;-75